createdAt,value
2018-11-03T00:01:35.343Z,17.90
2018-11-03T00:04:03.867Z,17.87
2018-11-03T00:06:32.173Z,17.17
2018-11-03T00:09:00.495Z,16.30
2018-11-03T00:11:29.087Z,17.17
2018-11-03T00:13:57.485Z,17.13
2018-11-03T00:16:25.933Z,17.60
2018-11-03T00:18:54.434Z,16.70
2018-11-03T00:21:23.345Z,17.07
2018-11-03T00:23:51.669Z,18.27
2018-11-03T00:26:19.953Z,18.37
2018-11-03T00:28:48.218Z,18.67
2018-11-03T00:31:16.665Z,17.90
2018-11-03T00:33:44.917Z,18.27
2018-11-03T00:36:13.272Z,17.27
2018-11-03T00:38:41.542Z,17.33
2018-11-03T00:41:09.859Z,17.57
2018-11-03T00:43:38.129Z,17.77
2018-11-03T00:46:06.440Z,17.10
2018-11-03T00:48:34.811Z,16.97
2018-11-03T00:51:03.089Z,19.87
2018-11-03T00:53:31.428Z,16.60
2018-11-03T00:55:59.776Z,16.50
2018-11-03T00:58:28.049Z,17.30
2018-11-03T01:00:56.355Z,17.83
2018-11-03T01:03:24.629Z,17.47
2018-11-03T01:05:52.922Z,22.03
2018-11-03T01:08:21.205Z,20.17
2018-11-03T01:10:49.488Z,23.13
2018-11-03T01:13:17.761Z,20.47
2018-11-03T01:15:46.017Z,20.33
2018-11-03T01:18:14.315Z,22.07
2018-11-03T01:20:42.606Z,19.13
2018-11-03T01:23:10.905Z,21.63
2018-11-03T01:25:39.290Z,21.57
2018-11-03T01:28:07.578Z,18.27
2018-11-03T01:30:35.897Z,18.93
2018-11-03T01:33:04.333Z,19.33
2018-11-03T01:35:32.630Z,19.10
2018-11-03T01:38:00.889Z,17.97
2018-11-03T01:40:29.419Z,19.80
2018-11-03T01:42:57.709Z,17.77
2018-11-03T01:45:25.980Z,17.90
2018-11-03T01:47:54.266Z,17.67
2018-11-03T01:50:22.543Z,19.07
2018-11-03T01:52:50.821Z,18.07
2018-11-03T01:55:19.093Z,20.57
2018-11-03T01:57:47.368Z,18.97
2018-11-03T02:00:15.654Z,18.80
2018-11-03T02:02:43.936Z,17.33
2018-11-03T02:05:12.238Z,18.60
2018-11-03T02:07:40.876Z,17.60
2018-11-03T02:10:10.321Z,21.00
2018-11-03T02:12:38.618Z,19.30
2018-11-03T02:15:06.923Z,18.90
2018-11-03T02:17:35.216Z,17.57
2018-11-03T02:20:03.486Z,19.47
2018-11-03T02:22:31.742Z,19.83
2018-11-03T02:25:00.030Z,21.30
2018-11-03T02:27:28.327Z,19.73
2018-11-03T02:29:56.617Z,21.90
2018-11-03T02:32:24.903Z,20.70
2018-11-03T02:34:53.196Z,22.50
2018-11-03T02:37:21.482Z,20.50
2018-11-03T02:39:49.762Z,22.57
2018-11-03T02:42:18.042Z,23.13
2018-11-03T02:44:46.322Z,21.00
2018-11-03T02:47:14.617Z,21.17
2018-11-03T02:49:42.910Z,20.13
2018-11-03T02:52:11.197Z,19.33
2018-11-03T02:54:39.515Z,19.90
2018-11-03T02:57:07.802Z,24.70
2018-11-03T02:59:36.076Z,21.17
2018-11-03T03:02:04.932Z,20.80
2018-11-03T03:04:33.221Z,21.13
2018-11-03T03:07:01.487Z,24.47
2018-11-03T03:09:29.762Z,20.87
2018-11-03T03:11:58.034Z,21.93
2018-11-03T03:14:26.334Z,21.87
2018-11-03T03:16:54.601Z,21.80
2018-11-03T03:19:22.881Z,23.70
2018-11-03T03:21:51.166Z,26.07
2018-11-03T03:24:19.484Z,23.10
2018-11-03T03:26:47.766Z,22.93
2018-11-03T03:29:16.044Z,25.40
2018-11-03T03:31:44.337Z,23.43
2018-11-03T03:34:12.737Z,22.47
2018-11-03T03:36:41.020Z,24.30
2018-11-03T03:39:10.188Z,22.80
2018-11-03T03:41:38.696Z,23.20
2018-11-03T03:44:07.013Z,22.23
2018-11-03T03:46:35.458Z,21.70
2018-11-03T03:49:03.720Z,23.87
2018-11-03T03:51:32.013Z,23.07
2018-11-03T03:54:00.449Z,22.67
2018-11-03T03:56:28.734Z,23.07
2018-11-03T03:58:57.042Z,21.80
2018-11-03T04:01:25.316Z,23.20
2018-11-03T04:03:53.607Z,24.07
2018-11-03T04:06:21.889Z,24.30
2018-11-03T04:08:50.182Z,22.27
2018-11-03T04:11:18.443Z,27.00
2018-11-03T04:13:46.749Z,22.20
2018-11-03T04:16:15.177Z,22.50
2018-11-03T04:18:43.714Z,25.47
2018-11-03T04:21:16.250Z,22.73
2018-11-03T04:23:44.670Z,24.83
2018-11-03T04:26:13.033Z,25.47
2018-11-03T04:28:41.336Z,25.13
2018-11-03T04:31:09.609Z,22.53
2018-11-03T04:33:37.895Z,22.83
2018-11-03T04:36:06.174Z,25.97
2018-11-03T04:38:34.505Z,25.53
2018-11-03T04:41:02.859Z,23.37
2018-11-03T04:43:31.105Z,25.83
2018-11-03T04:45:59.378Z,24.23
2018-11-03T04:48:27.638Z,24.97
2018-11-03T04:50:55.926Z,24.50
2018-11-03T04:53:24.210Z,25.33
2018-11-03T04:55:52.501Z,23.93
2018-11-03T04:58:20.758Z,24.47
2018-11-03T05:00:49.073Z,26.20
2018-11-03T05:03:17.359Z,24.87
2018-11-03T05:05:45.625Z,25.93
2018-11-03T05:08:13.911Z,26.17
2018-11-03T05:10:42.185Z,27.43
2018-11-03T05:13:10.455Z,24.83
2018-11-03T05:15:38.737Z,28.60
2018-11-03T05:18:07.025Z,27.97
2018-11-03T05:20:35.337Z,29.13
2018-11-03T05:23:03.633Z,27.07
2018-11-03T05:25:31.890Z,25.43
2018-11-03T05:28:00.188Z,29.17
2018-11-03T05:30:28.456Z,30.37
2018-11-03T05:32:57.117Z,29.63
2018-11-03T05:35:25.417Z,30.43
2018-11-03T05:37:53.703Z,27.43
2018-11-03T05:40:21.965Z,26.97
2018-11-03T05:42:50.241Z,26.50
2018-11-03T05:45:18.521Z,30.73
2018-11-03T05:47:46.812Z,27.57
2018-11-03T05:50:15.106Z,30.37
2018-11-03T05:52:43.367Z,24.23
2018-11-03T05:55:11.647Z,24.23
2018-11-03T05:57:39.957Z,24.53
2018-11-03T06:00:09.386Z,26.07
2018-11-03T06:02:37.677Z,25.07
2018-11-03T06:05:06.406Z,26.03
2018-11-03T06:07:34.674Z,25.17
2018-11-03T06:10:02.969Z,26.67
2018-11-03T06:12:31.230Z,25.47
2018-11-03T06:14:59.566Z,26.20
2018-11-03T06:17:27.897Z,25.53
2018-11-03T06:19:56.165Z,24.53
2018-11-03T06:22:24.514Z,31.00
2018-11-03T06:24:52.782Z,25.43
2018-11-03T06:27:21.093Z,24.97
2018-11-03T06:29:49.373Z,27.70
2018-11-03T06:32:17.731Z,27.27
2018-11-03T06:34:46.011Z,26.17
2018-11-03T06:37:14.311Z,23.97
2018-11-03T06:39:42.870Z,25.90
2018-11-03T06:42:11.977Z,30.80
2018-11-03T06:44:40.342Z,24.33
2018-11-03T06:47:08.633Z,24.07
2018-11-03T06:49:36.923Z,25.17
2018-11-03T06:52:05.477Z,24.80
2018-11-03T06:54:33.805Z,26.20
2018-11-03T06:57:02.147Z,25.20
2018-11-03T06:59:30.499Z,25.20
2018-11-03T07:01:58.761Z,23.67
2018-11-03T07:04:27.082Z,25.53
2018-11-03T07:06:55.377Z,23.97
2018-11-03T07:09:23.666Z,25.70
2018-11-03T07:11:52.023Z,23.47
2018-11-03T07:14:20.342Z,28.23
2018-11-03T07:16:48.619Z,24.60
2018-11-03T07:19:16.897Z,22.93
2018-11-03T07:21:45.272Z,23.23
2018-11-03T07:24:13.672Z,27.70
2018-11-03T07:26:41.977Z,22.50
2018-11-03T07:29:10.445Z,22.77
2018-11-03T07:31:38.701Z,24.20
2018-11-03T07:34:07.173Z,24.23
2018-11-03T07:36:35.462Z,27.37
2018-11-03T07:39:04.090Z,23.43
2018-11-03T07:41:32.442Z,21.70
2018-11-03T07:44:00.695Z,24.70
2018-11-03T07:46:29.019Z,22.33
2018-11-03T07:48:57.381Z,25.13
2018-11-03T07:51:25.597Z,23.10
2018-11-03T07:53:53.880Z,20.67
2018-11-03T07:56:22.145Z,25.93
2018-11-03T07:58:50.478Z,21.60
2018-11-03T08:01:18.807Z,25.77
2018-11-03T08:03:47.094Z,24.47
2018-11-03T08:06:15.381Z,21.47
2018-11-03T08:08:43.744Z,21.03
2018-11-03T08:11:12.034Z,22.17
2018-11-03T08:13:40.375Z,22.20
2018-11-03T08:16:08.729Z,25.13
2018-11-03T08:18:37.036Z,20.50
2018-11-03T08:21:05.381Z,19.70
2018-11-03T08:23:33.673Z,23.53
2018-11-03T08:26:01.929Z,24.43
2018-11-03T08:28:30.293Z,22.00
2018-11-03T08:30:58.628Z,25.30
2018-11-03T08:33:26.945Z,22.30
2018-11-03T08:35:55.205Z,22.27
2018-11-03T08:38:23.529Z,31.00
2018-11-03T08:40:51.838Z,24.37
2018-11-03T08:43:20.149Z,21.20
2018-11-03T08:45:48.445Z,22.23
2018-11-03T08:48:16.760Z,26.10
2018-11-03T08:50:45.029Z,21.63
2018-11-03T08:53:13.366Z,21.77
2018-11-03T08:55:41.697Z,19.27
2018-11-03T08:58:09.953Z,19.27
2018-11-03T09:00:38.245Z,22.90
2018-11-03T09:03:06.578Z,23.67
2018-11-03T09:05:34.926Z,21.80
2018-11-03T09:08:03.221Z,26.20
2018-11-03T09:10:31.536Z,21.37
2018-11-03T09:12:59.857Z,20.43
2018-11-03T09:15:28.137Z,21.03
2018-11-03T09:17:56.472Z,22.87
2018-11-03T09:20:24.818Z,20.43
2018-11-03T09:22:53.164Z,24.03
2018-11-03T09:25:21.473Z,21.63
2018-11-03T09:27:49.774Z,22.37
2018-11-03T09:30:19.140Z,22.67
2018-11-03T09:32:47.409Z,23.67
2018-11-03T09:35:16.411Z,23.40
2018-11-03T09:37:44.693Z,24.73
2018-11-03T09:40:14.385Z,23.27
2018-11-03T09:42:43.782Z,24.50
2018-11-03T09:45:12.697Z,24.07
2018-11-03T09:47:41.346Z,26.43
2018-11-03T09:50:11.377Z,24.33
2018-11-03T09:52:39.970Z,25.63
2018-11-03T09:55:10.247Z,22.00
2018-11-03T09:57:38.565Z,25.47
2018-11-03T10:00:09.591Z,19.47
2018-11-03T10:02:38.379Z,19.33
2018-11-03T10:05:07.386Z,17.10
2018-11-03T10:07:35.874Z,15.20
2018-11-03T10:10:04.177Z,15.07
2018-11-03T10:12:32.510Z,14.93
2018-11-03T10:15:00.827Z,16.10
2018-11-03T10:17:29.151Z,11.73
2018-11-03T10:19:57.436Z,12.93
2018-11-03T10:22:25.810Z,14.57
2018-11-03T10:24:54.180Z,16.57
2018-11-03T10:27:22.501Z,14.70
2018-11-03T10:29:50.837Z,14.03
2018-11-03T10:32:19.128Z,20.30
2018-11-03T10:34:47.410Z,15.93
2018-11-03T10:37:15.889Z,13.30
2018-11-03T10:39:44.166Z,16.70
2018-11-03T10:42:12.483Z,12.33
2018-11-03T10:44:40.750Z,12.63
2018-11-03T10:47:09.100Z,14.00
2018-11-03T10:49:41.646Z,12.33
2018-11-03T10:52:10.220Z,11.47
2018-11-03T10:54:38.811Z,11.43
2018-11-03T10:57:07.623Z,10.40
2018-11-03T10:59:35.933Z,9.50
2018-11-03T11:02:09.605Z,9.23
2018-11-03T11:04:43.352Z,7.90
2018-11-03T11:07:17.741Z,7.83
2018-11-03T11:09:51.645Z,8.03
2018-11-03T11:12:25.674Z,11.00
2018-11-03T11:14:53.997Z,13.97
2018-11-03T11:17:22.295Z,9.13
2018-11-03T11:19:50.609Z,11.13
2018-11-03T11:22:19.001Z,8.67
2018-11-03T11:24:47.445Z,9.00
2018-11-03T11:27:15.739Z,9.33
2018-11-03T11:29:44.110Z,9.67
2018-11-03T11:32:12.621Z,14.07
2018-11-03T11:34:42.777Z,10.33
2018-11-03T11:37:11.065Z,9.73
2018-11-03T11:39:39.961Z,10.90
2018-11-03T11:42:12.690Z,6.80
2018-11-03T11:44:42.294Z,8.60
2018-11-03T11:47:11.446Z,8.90
2018-11-03T11:49:39.775Z,9.13
2018-11-03T11:52:08.082Z,6.93
2018-11-03T11:54:36.446Z,9.53
2018-11-03T11:57:04.929Z,10.33
2018-11-03T11:59:33.193Z,11.10
2018-11-03T12:02:01.494Z,10.67
2018-11-03T12:04:29.823Z,7.97
2018-11-03T12:06:58.908Z,10.90
2018-11-03T12:09:27.661Z,11.07
2018-11-03T12:11:56.226Z,8.03
2018-11-03T12:14:24.504Z,5.97
2018-11-03T12:16:52.897Z,9.00
2018-11-03T12:19:21.234Z,9.03
2018-11-03T12:21:49.734Z,10.60
2018-11-03T12:24:19.275Z,11.67
2018-11-03T12:26:47.570Z,7.83
2018-11-03T12:29:15.928Z,7.13
2018-11-03T12:31:44.265Z,9.17
2018-11-03T12:34:12.787Z,7.80
2018-11-03T12:36:41.179Z,9.50
2018-11-03T12:39:10.003Z,8.67
2018-11-03T12:41:38.317Z,8.93
2018-11-03T12:44:06.622Z,8.77
2018-11-03T12:46:34.970Z,5.83
2018-11-03T12:49:03.486Z,10.03
2018-11-03T12:51:31.857Z,7.73
2018-11-03T12:54:00.242Z,12.63
2018-11-03T12:56:28.517Z,8.77
2018-11-03T12:58:56.879Z,6.53
2018-11-03T13:01:25.134Z,8.40
2018-11-03T13:03:53.466Z,10.60
2018-11-03T13:06:21.892Z,13.17
2018-11-03T13:08:50.217Z,7.03
2018-11-03T13:11:18.712Z,5.83
2018-11-03T13:13:47.132Z,9.30
2018-11-03T13:16:15.438Z,6.70
2018-11-03T13:18:44.105Z,6.87
2018-11-03T13:21:12.512Z,7.67
2018-11-03T13:23:41.020Z,10.10
2018-11-03T13:26:09.452Z,6.67
2018-11-03T13:28:37.868Z,8.27
2018-11-03T13:31:06.396Z,8.33
2018-11-03T13:33:34.757Z,8.43
2018-11-03T13:36:04.197Z,10.30
2018-11-03T13:38:32.618Z,8.73
2018-11-03T13:41:01.057Z,7.57
2018-11-03T13:43:29.337Z,8.13
2018-11-03T13:45:58.846Z,10.73
2018-11-03T13:48:27.174Z,9.67
2018-11-03T13:50:55.532Z,7.90
2018-11-03T13:53:23.940Z,6.40
2018-11-03T13:55:53.520Z,6.90
2018-11-03T13:58:21.860Z,7.13
2018-11-03T14:00:50.202Z,8.67
2018-11-03T14:03:18.521Z,8.97
2018-11-03T14:05:46.976Z,7.00
2018-11-03T14:08:15.515Z,9.97
2018-11-03T14:10:43.924Z,7.20
2018-11-03T14:13:12.249Z,8.63
2018-11-03T14:15:40.605Z,8.17
2018-11-03T14:18:08.982Z,8.73
2018-11-03T14:20:37.375Z,5.93
2018-11-03T14:23:06.075Z,8.23
2018-11-03T14:25:34.390Z,7.67
2018-11-03T14:28:02.799Z,8.00
2018-11-03T14:30:31.112Z,9.70
2018-11-03T14:32:59.443Z,6.63
2018-11-03T14:35:27.817Z,9.07
2018-11-03T14:37:56.113Z,10.33
2018-11-03T14:40:24.510Z,8.60
2018-11-03T14:42:52.961Z,6.97
2018-11-03T14:45:21.414Z,7.40
2018-11-03T14:47:49.620Z,11.27
2018-11-03T14:50:17.994Z,8.17
2018-11-03T14:52:46.404Z,13.67
2018-11-03T14:55:14.769Z,6.20
2018-11-03T14:57:43.101Z,7.80
2018-11-03T15:00:14.114Z,11.00
2018-11-03T15:02:42.473Z,10.17
2018-11-03T15:05:11.491Z,9.20
2018-11-03T15:07:39.858Z,12.77
2018-11-03T15:10:08.921Z,10.83
2018-11-03T15:12:37.259Z,11.27
2018-11-03T15:15:06.862Z,8.77
2018-11-03T15:17:35.161Z,13.53
2018-11-03T15:20:03.619Z,11.53
2018-11-03T15:22:31.988Z,6.13
2018-11-03T15:25:00.297Z,10.30
2018-11-03T15:27:28.709Z,8.67
2018-11-03T15:32:34.480Z,8.37
2018-11-03T15:35:02.815Z,9.10
2018-11-03T15:37:31.172Z,12.13
2018-11-03T15:39:59.442Z,8.03
2018-11-03T15:42:27.844Z,9.27
2018-11-03T15:44:56.368Z,9.33
2018-11-03T15:47:24.780Z,10.10
2018-11-03T15:49:53.135Z,13.70
2018-11-03T15:52:21.726Z,8.27
2018-11-03T15:54:50.098Z,10.73
2018-11-03T15:57:18.454Z,7.80
2018-11-03T15:59:46.787Z,10.90
2018-11-03T16:02:15.250Z,10.10
2018-11-03T16:04:43.627Z,11.27
2018-11-03T16:07:11.877Z,11.83
2018-11-03T16:09:40.168Z,9.97
2018-11-03T16:12:08.603Z,10.67
2018-11-03T16:14:36.898Z,11.67
2018-11-03T16:17:05.435Z,11.03
2018-11-03T16:19:33.871Z,12.40
2018-11-03T16:22:02.105Z,10.60
2018-11-03T16:24:30.354Z,12.43
2018-11-03T16:26:58.709Z,13.97
2018-11-03T16:29:27.231Z,13.13
2018-11-03T16:31:55.513Z,12.93
2018-11-03T16:34:24.030Z,10.43
2018-11-03T16:36:52.320Z,16.57
2018-11-03T16:39:20.738Z,10.73
2018-11-03T16:41:49.050Z,11.50
2018-11-03T16:44:17.405Z,15.70
2018-11-03T16:46:45.657Z,15.83
2018-11-03T16:49:17.578Z,9.17
2018-11-03T16:51:45.885Z,12.17
2018-11-03T16:54:14.163Z,10.40
2018-11-03T16:56:42.483Z,11.57
2018-11-03T16:59:10.741Z,11.30
2018-11-03T17:01:39.021Z,14.70
2018-11-03T17:04:07.309Z,12.33
2018-11-03T17:06:35.736Z,10.80
2018-11-03T17:09:05.201Z,13.97
2018-11-03T17:11:33.505Z,10.60
2018-11-03T17:14:01.797Z,13.63
2018-11-03T17:16:30.147Z,13.70
2018-11-03T17:18:58.448Z,16.50
2018-11-03T17:21:26.800Z,16.10
2018-11-03T17:23:55.073Z,14.60
2018-11-03T17:26:23.392Z,15.20
2018-11-03T17:28:51.722Z,61.53
2018-11-03T17:31:20.015Z,15.67
2018-11-03T17:33:48.304Z,18.63
2018-11-03T17:36:16.675Z,13.93
2018-11-03T17:38:45.031Z,14.23
2018-11-03T17:41:13.297Z,13.07
2018-11-03T17:43:41.657Z,13.13
2018-11-03T17:46:09.922Z,10.50
2018-11-03T17:48:38.168Z,14.93
2018-11-03T17:51:06.445Z,12.47
2018-11-03T17:53:34.734Z,12.67
2018-11-03T17:56:03.010Z,18.33
2018-11-03T17:58:31.313Z,18.80
2018-11-03T18:00:59.660Z,12.80
2018-11-03T18:03:27.945Z,15.37
2018-11-03T18:05:56.226Z,17.00
2018-11-03T18:08:24.512Z,16.47
2018-11-03T18:10:52.789Z,15.33
2018-11-03T18:13:21.211Z,18.83
2018-11-03T18:15:49.407Z,20.67
2018-11-03T18:18:17.713Z,20.27
2018-11-03T18:20:45.974Z,20.93
2018-11-03T18:23:14.301Z,25.07
2018-11-03T18:25:42.594Z,21.57
2018-11-03T18:28:10.888Z,16.60
2018-11-03T18:30:39.245Z,20.00
2018-11-03T18:33:07.578Z,16.27
2018-11-03T18:35:35.985Z,17.37
2018-11-03T18:38:04.388Z,19.03
2018-11-03T18:40:32.725Z,15.07
2018-11-03T18:43:01.019Z,17.70
2018-11-03T18:45:29.392Z,16.03
2018-11-03T18:47:57.679Z,16.83
2018-11-03T18:50:25.968Z,17.57
2018-11-03T18:52:54.275Z,20.97
2018-11-03T18:55:22.627Z,18.17
2018-11-03T18:57:50.888Z,17.77
2018-11-03T19:00:19.213Z,19.67
2018-11-03T19:02:47.551Z,19.80
2018-11-03T19:05:15.915Z,19.87
2018-11-03T19:07:44.187Z,18.63
2018-11-03T19:10:12.567Z,17.10
2018-11-03T19:12:40.878Z,16.47
2018-11-03T19:15:10.229Z,24.73
2018-11-03T19:17:38.728Z,19.57
2018-11-03T19:20:15.677Z,19.93
2018-11-03T19:22:44.162Z,18.30
2018-11-03T19:25:13.678Z,19.97
2018-11-03T19:27:42.222Z,17.10
2018-11-03T19:30:13.072Z,15.07
2018-11-03T19:32:42.617Z,22.00
2018-11-03T19:35:10.938Z,23.40
2018-11-03T19:37:39.932Z,17.60
2018-11-03T19:40:09.943Z,21.13
2018-11-03T19:42:38.564Z,19.37
2018-11-03T19:45:06.853Z,16.63
2018-11-03T19:47:35.195Z,18.60
2018-11-03T19:50:03.557Z,19.87
2018-11-03T19:52:31.954Z,21.63
2018-11-03T19:55:00.372Z,20.70
2018-11-03T19:57:28.706Z,17.17
2018-11-03T19:59:57.238Z,24.57
2018-11-03T20:02:29.492Z,17.97
2018-11-03T20:04:57.860Z,18.23
2018-11-03T20:07:26.182Z,17.07
2018-11-03T20:09:54.660Z,16.83
2018-11-03T20:12:22.970Z,17.73
2018-11-03T20:14:51.799Z,17.90
2018-11-03T20:17:20.138Z,17.47
2018-11-03T20:19:48.509Z,18.00
2018-11-03T20:22:16.796Z,18.87
2018-11-03T20:24:45.123Z,20.27
2018-11-03T20:27:13.509Z,19.27
2018-11-03T20:29:41.794Z,18.27
2018-11-03T20:32:10.157Z,18.67
2018-11-03T20:34:38.526Z,20.37
2018-11-03T20:37:07.298Z,17.17
2018-11-03T20:39:35.557Z,14.40
2018-11-03T20:42:04.178Z,18.60
2018-11-03T20:44:32.509Z,18.27
2018-11-03T20:47:00.828Z,18.90
2018-11-03T20:49:29.273Z,23.63
2018-11-03T20:51:58.768Z,15.03
2018-11-03T20:54:27.240Z,19.23
2018-11-03T20:56:55.744Z,19.83
2018-11-03T20:59:24.325Z,17.73
2018-11-03T21:01:52.710Z,18.23
2018-11-03T21:04:21.051Z,18.43
2018-11-03T21:06:49.420Z,21.37
2018-11-03T21:09:17.721Z,17.43
2018-11-03T21:11:46.034Z,17.57
2018-11-03T21:14:14.387Z,24.40
2018-11-03T21:16:42.673Z,22.40
2018-11-03T21:19:11.050Z,32.13
2018-11-03T21:21:39.360Z,28.33
2018-11-03T21:24:07.795Z,23.50
2018-11-03T21:26:36.068Z,18.13
2018-11-03T21:29:04.409Z,17.87
2018-11-03T21:31:32.951Z,18.33
2018-11-03T21:34:01.715Z,21.27
2018-11-03T21:36:29.998Z,19.40
2018-11-03T21:38:58.357Z,22.43
2018-11-03T21:41:26.626Z,21.73
2018-11-03T21:43:58.975Z,18.37
2018-11-03T21:46:27.551Z,22.47
2018-11-03T21:48:56.062Z,22.17
2018-11-03T21:51:24.367Z,21.73
2018-11-03T21:53:53.285Z,18.83
2018-11-03T21:56:21.578Z,21.27
2018-11-03T21:58:49.847Z,21.37
2018-11-03T22:01:18.284Z,20.47
2018-11-03T22:03:46.593Z,22.17
2018-11-03T22:06:14.919Z,21.87
2018-11-03T22:08:43.439Z,21.33
2018-11-03T22:11:11.825Z,21.17
2018-11-03T22:13:40.090Z,25.07
2018-11-03T22:16:08.369Z,53.97
2018-11-03T22:18:36.678Z,28.30
2018-11-03T22:21:05.182Z,23.67
2018-11-03T22:23:33.454Z,21.53
2018-11-03T22:26:01.737Z,20.27
2018-11-03T22:28:30.102Z,19.47
2018-11-03T22:30:58.397Z,22.40
2018-11-03T22:33:26.689Z,21.20
2018-11-03T22:35:55.079Z,21.53
2018-11-03T22:38:23.437Z,22.57
2018-11-03T22:40:51.792Z,19.37
2018-11-03T22:43:20.086Z,22.37
2018-11-03T22:45:48.481Z,21.20
2018-11-03T22:48:16.746Z,22.40
2018-11-03T22:50:45.044Z,20.80
2018-11-03T22:53:13.468Z,19.57
2018-11-03T22:55:42.000Z,20.80
2018-11-03T22:58:10.384Z,19.30
2018-11-03T23:00:44.310Z,19.57
2018-11-03T23:03:12.670Z,20.43
2018-11-03T23:05:40.997Z,22.00
2018-11-03T23:08:09.332Z,19.77
2018-11-03T23:10:37.730Z,27.00
2018-11-03T23:13:06.761Z,23.53
2018-11-03T23:15:35.077Z,21.17
2018-11-03T23:18:03.434Z,25.73
2018-11-03T23:20:31.846Z,21.30
2018-11-03T23:23:00.133Z,22.33
2018-11-03T23:25:28.470Z,26.40
2018-11-03T23:27:56.841Z,24.37
2018-11-03T23:30:25.239Z,24.80
2018-11-03T23:32:53.604Z,21.23
2018-11-03T23:35:22.181Z,31.80
2018-11-03T23:37:50.499Z,25.27
2018-11-03T23:40:18.908Z,22.50
2018-11-03T23:42:47.242Z,25.33
2018-11-03T23:45:15.654Z,23.70
2018-11-03T23:47:44.018Z,23.93
2018-11-03T23:50:13.532Z,24.63
2018-11-03T23:52:44.927Z,24.03
2018-11-03T23:55:13.281Z,25.00
2018-11-03T23:57:41.541Z,24.73
